createdAt,value
2018-07-04T21:30:21.009Z,36.10
2018-07-04T21:33:06.049Z,36.20
2018-07-04T21:35:51.303Z,36.60
2018-07-04T21:38:36.525Z,36.90
2018-07-04T21:41:21.557Z,36.70
2018-07-04T21:44:08.902Z,36.80
2018-07-04T21:46:53.893Z,36.90
2018-07-04T21:52:18.439Z,37.20
2018-07-04T21:57:42.965Z,37.40
2018-07-04T22:00:28.153Z,37.40
2018-07-04T22:03:17.452Z,37.50
2018-07-04T22:08:41.481Z,37.70
2018-07-04T22:11:26.690Z,37.80
2018-07-04T22:14:11.753Z,37.90
2018-07-04T22:16:56.849Z,37.90
2018-07-04T22:19:42.435Z,38.10
2018-07-04T22:25:06.863Z,38.20
2018-07-04T22:27:51.957Z,38.30
2018-07-04T22:33:18.316Z,38.50
2018-07-04T22:36:05.984Z,38.60
2018-07-04T22:38:51.109Z,38.60
2018-07-04T22:41:36.075Z,38.80
2018-07-04T22:44:21.333Z,38.90
2018-07-04T22:49:46.021Z,39.10
2018-07-04T22:52:31.197Z,39.10
2018-07-04T22:55:16.797Z,39.30
2018-07-04T22:58:01.725Z,39.30
2018-07-04T23:00:47.173Z,39.30
2018-07-04T23:03:32.213Z,39.40
2018-07-04T23:06:17.802Z,39.60
2018-07-04T23:09:03.937Z,39.60
2018-07-04T23:11:49.209Z,39.60
2018-07-04T23:17:13.527Z,39.60
2018-07-04T23:19:58.601Z,39.60
2018-07-04T23:22:43.825Z,39.80
2018-07-04T23:25:29.093Z,40.10
2018-07-04T23:28:18.505Z,39.80
2018-07-04T23:31:03.625Z,39.70
2018-07-04T23:33:48.889Z,39.70
2018-07-04T23:36:33.977Z,39.50
2018-07-04T23:39:19.267Z,39.70
2018-07-04T23:42:04.286Z,39.70
2018-07-04T23:44:49.752Z,39.70
2018-07-04T23:47:34.808Z,39.80
2018-07-04T23:50:20.004Z,39.80
2018-07-04T23:53:05.227Z,39.80
2018-07-04T23:55:50.418Z,39.90
2018-07-04T23:58:35.488Z,39.90
